createdAt,value
2018-11-13T00:02:06.308Z,15.85
2018-11-13T00:04:34.707Z,15.64
2018-11-13T00:07:03.165Z,15.90
2018-11-13T00:09:31.572Z,15.33
2018-11-13T00:11:59.956Z,15.00
2018-11-13T00:14:28.840Z,14.98
2018-11-13T00:16:57.253Z,15.00
2018-11-13T00:19:25.696Z,15.59
2018-11-13T00:21:54.098Z,15.35
2018-11-13T00:24:23.296Z,15.23
2018-11-13T00:26:51.684Z,14.91
2018-11-13T00:29:20.230Z,14.81
2018-11-13T00:31:48.575Z,14.85
2018-11-13T00:34:16.958Z,14.84
2018-11-13T00:36:45.377Z,14.60
2018-11-13T00:39:14.535Z,15.06
2018-11-13T00:41:42.873Z,14.95
2018-11-13T00:44:12.013Z,15.49
2018-11-13T00:46:40.394Z,15.39
2018-11-13T00:49:09.544Z,15.07
2018-11-13T00:51:38.295Z,14.92
2018-11-13T00:54:06.722Z,14.60
2018-11-13T00:56:35.277Z,14.52
2018-11-13T00:59:03.675Z,14.09
2018-11-13T01:01:32.129Z,14.83
2018-11-13T01:04:00.517Z,14.24
2018-11-13T01:06:31.945Z,13.97
2018-11-13T01:09:00.509Z,14.71
2018-11-13T01:11:28.929Z,14.39
2018-11-13T01:13:57.292Z,14.42
2018-11-13T01:16:25.625Z,14.46
2018-11-13T01:18:54.072Z,14.56
2018-11-13T01:21:22.432Z,14.90
2018-11-13T01:23:50.740Z,15.14
2018-11-13T01:26:19.068Z,14.91
2018-11-13T01:28:47.463Z,14.11
2018-11-13T01:31:15.868Z,14.57
2018-11-13T01:33:44.177Z,15.11
2018-11-13T01:36:12.667Z,15.36
2018-11-13T01:38:40.967Z,15.18
2018-11-13T01:41:09.284Z,15.02
2018-11-13T01:43:37.604Z,14.52
2018-11-13T01:46:06.089Z,14.90
2018-11-13T01:48:34.402Z,14.49
2018-11-13T01:51:02.712Z,14.78
2018-11-13T01:53:31.081Z,14.99
2018-11-13T01:55:59.495Z,15.22
2018-11-13T01:58:27.791Z,14.77
2018-11-13T02:00:56.203Z,14.84
2018-11-13T02:03:24.607Z,14.82
2018-11-13T02:05:53.020Z,14.76
2018-11-13T02:08:21.329Z,14.33
2018-11-13T02:10:49.663Z,14.20
2018-11-13T02:13:17.964Z,14.24
2018-11-13T02:15:46.349Z,13.75
2018-11-13T02:18:14.661Z,13.81
2018-11-13T02:20:42.980Z,14.53
2018-11-13T02:23:11.327Z,15.11
2018-11-13T02:25:39.635Z,14.08
2018-11-13T02:28:07.949Z,14.11
2018-11-13T02:30:36.286Z,13.83
2018-11-13T02:33:04.887Z,13.58
2018-11-13T02:35:33.636Z,13.85
2018-11-13T02:38:01.848Z,13.82
2018-11-13T02:40:30.217Z,14.39
2018-11-13T02:42:58.723Z,14.01
2018-11-13T02:45:27.096Z,13.72
2018-11-13T02:47:55.465Z,13.57
2018-11-13T02:50:23.785Z,13.52
2018-11-13T02:52:52.107Z,13.66
2018-11-13T02:55:20.460Z,13.49
2018-11-13T02:57:48.797Z,13.37
2018-11-13T03:00:18.667Z,13.51
2018-11-13T03:02:47.120Z,13.82
2018-11-13T03:05:16.655Z,13.64
2018-11-13T03:07:45.088Z,13.71
2018-11-13T03:10:14.635Z,13.09
2018-11-13T03:12:43.149Z,13.41
2018-11-13T03:15:13.738Z,13.36
2018-11-13T03:17:42.200Z,13.58
2018-11-13T03:20:13.138Z,13.68
2018-11-13T03:22:42.006Z,13.83
2018-11-13T03:25:12.803Z,13.80
2018-11-13T03:27:41.187Z,13.90
2018-11-13T03:30:11.768Z,13.51
2018-11-13T03:32:40.165Z,14.14
2018-11-13T03:35:08.589Z,13.82
2018-11-13T03:37:36.984Z,13.35
2018-11-13T03:40:06.171Z,13.35
2018-11-13T03:42:34.651Z,12.93
2018-11-13T03:45:03.046Z,12.93
2018-11-13T03:47:31.412Z,12.98
2018-11-13T03:49:59.815Z,13.30
2018-11-13T03:52:28.209Z,13.20
2018-11-13T03:54:56.592Z,13.18
2018-11-13T03:57:25.021Z,13.21
2018-11-13T03:59:53.323Z,13.15
2018-11-13T04:02:21.700Z,13.05
2018-11-13T04:04:50.094Z,13.20
2018-11-13T04:07:18.464Z,13.02
2018-11-13T04:09:46.827Z,12.94
2018-11-13T04:12:15.238Z,13.17
2018-11-13T04:14:43.729Z,13.43
2018-11-13T04:17:12.109Z,13.35
2018-11-13T04:19:40.656Z,13.41
2018-11-13T04:22:09.085Z,13.50
2018-11-13T04:24:37.477Z,13.94
2018-11-13T04:27:05.911Z,14.03
2018-11-13T04:29:34.361Z,13.87
2018-11-13T04:32:02.873Z,14.31
2018-11-13T04:34:31.267Z,13.91
2018-11-13T04:36:59.710Z,13.01
2018-11-13T04:39:28.103Z,12.91
2018-11-13T04:41:56.401Z,13.07
2018-11-13T04:44:24.806Z,12.95
2018-11-13T04:46:53.238Z,13.13
2018-11-13T04:49:21.732Z,13.57
2018-11-13T04:51:50.147Z,13.17
2018-11-13T04:54:18.572Z,13.21
2018-11-13T04:56:47.020Z,13.43
2018-11-13T04:59:15.424Z,13.32
2018-11-13T05:01:43.852Z,13.12
2018-11-13T05:04:12.217Z,13.29
2018-11-13T05:06:40.564Z,12.78
2018-11-13T05:09:08.964Z,12.91
2018-11-13T05:11:37.492Z,13.37
2018-11-13T05:14:06.051Z,13.21
2018-11-13T05:16:34.467Z,12.98
2018-11-13T05:19:02.851Z,13.02
2018-11-13T05:21:31.303Z,13.09
2018-11-13T05:23:59.784Z,12.95
2018-11-13T05:26:28.181Z,13.18
2018-11-13T05:28:56.639Z,13.07
2018-11-13T05:31:25.056Z,13.12
2018-11-13T05:33:53.418Z,13.44
2018-11-13T05:36:21.852Z,13.01
2018-11-13T05:38:50.197Z,13.54
2018-11-13T05:41:18.568Z,13.97
2018-11-13T05:43:46.947Z,13.62
2018-11-13T05:46:15.323Z,13.63
2018-11-13T05:48:43.707Z,13.23
2018-11-13T05:51:12.136Z,13.12
2018-11-13T05:53:40.504Z,13.62
2018-11-13T05:56:08.844Z,13.00
2018-11-13T05:58:37.450Z,13.29
2018-11-13T06:01:06.044Z,13.20
2018-11-13T06:03:34.424Z,12.93
2018-11-13T06:06:02.920Z,12.69
2018-11-13T06:08:31.349Z,13.08
2018-11-13T06:10:59.583Z,12.56
2018-11-13T06:13:27.912Z,12.66
2018-11-13T06:15:56.372Z,12.71
2018-11-13T06:18:24.749Z,13.59
2018-11-13T06:20:52.977Z,13.01
2018-11-13T06:23:21.344Z,13.41
2018-11-13T06:25:49.672Z,12.86
2018-11-13T06:28:18.028Z,13.31
2018-11-13T06:30:46.356Z,13.72
2018-11-13T06:33:14.783Z,13.74
2018-11-13T06:35:43.215Z,13.06
2018-11-13T06:38:11.739Z,12.91
2018-11-13T06:40:40.242Z,12.90
2018-11-13T06:43:08.647Z,13.68
2018-11-13T06:45:37.040Z,13.73
2018-11-13T06:48:05.808Z,13.67
2018-11-13T06:50:34.196Z,13.50
2018-11-13T06:53:02.600Z,13.74
2018-11-13T06:55:32.997Z,13.33
2018-11-13T06:58:01.339Z,13.15
2018-11-13T07:00:29.614Z,13.48
2018-11-13T07:02:58.070Z,12.81
2018-11-13T07:05:26.348Z,12.74
2018-11-13T07:07:54.627Z,12.72
2018-11-13T07:10:24.090Z,12.81
2018-11-13T07:12:53.011Z,12.93
2018-11-13T07:15:23.189Z,13.09
2018-11-13T07:17:53.679Z,13.14
2018-11-13T07:20:23.009Z,13.73
2018-11-13T07:22:51.336Z,13.76
2018-11-13T07:25:19.733Z,13.88
2018-11-13T07:27:48.134Z,13.48
2018-11-13T07:30:17.443Z,13.07
2018-11-13T07:32:45.800Z,12.66
2018-11-13T07:35:15.707Z,13.44
2018-11-13T07:37:48.471Z,12.63
2018-11-13T07:40:17.296Z,13.36
2018-11-13T07:42:45.712Z,13.96
2018-11-13T07:45:25.951Z,13.77
2018-11-13T07:47:57.311Z,13.94
2018-11-13T07:50:28.133Z,13.28
2018-11-13T07:52:56.605Z,13.79
2018-11-13T07:55:24.905Z,14.13
2018-11-13T07:57:53.323Z,13.53
2018-11-13T08:00:22.967Z,13.34
2018-11-13T08:02:52.569Z,13.60
2018-11-13T08:05:21.022Z,13.20
2018-11-13T08:07:49.388Z,13.10
2018-11-13T08:10:17.688Z,13.31
2018-11-13T08:12:46.418Z,13.53
2018-11-13T08:15:16.082Z,13.66
2018-11-13T08:17:44.383Z,13.38
2018-11-13T08:20:13.888Z,13.42
2018-11-13T08:22:42.513Z,13.77
2018-11-13T08:25:11.235Z,12.96
2018-11-13T08:27:40.374Z,13.92
2018-11-13T08:30:12.700Z,14.01
2018-11-13T08:32:40.980Z,13.20
2018-11-13T08:35:09.349Z,13.31
2018-11-13T08:37:37.740Z,13.56
2018-11-13T08:40:07.925Z,13.69
2018-11-13T08:42:36.239Z,12.88
2018-11-13T08:45:04.621Z,13.05
2018-11-13T08:47:32.920Z,13.06
2018-11-13T08:50:01.895Z,13.05
2018-11-13T08:52:30.704Z,13.33
2018-11-13T08:54:59.033Z,14.12
2018-11-13T08:57:27.688Z,14.02
2018-11-13T08:59:55.989Z,14.18
2018-11-13T09:02:24.331Z,13.96
2018-11-13T09:04:52.879Z,14.34
2018-11-13T09:07:21.167Z,14.24
2018-11-13T09:09:49.494Z,13.73
2018-11-13T09:12:17.860Z,13.81
2018-11-13T09:14:46.166Z,14.03
2018-11-13T09:17:14.610Z,13.68
2018-11-13T09:19:42.975Z,13.95
2018-11-13T09:22:11.184Z,14.28
2018-11-13T09:24:39.456Z,14.05
2018-11-13T09:27:07.745Z,13.93
2018-11-13T09:29:36.109Z,13.85
2018-11-13T09:32:04.403Z,13.59
2018-11-13T09:34:32.770Z,14.36
2018-11-13T09:37:01.215Z,13.85
2018-11-13T09:39:29.644Z,14.03
2018-11-13T09:41:58.104Z,13.20
2018-11-13T09:44:26.583Z,13.31
2018-11-13T09:46:54.994Z,13.58
2018-11-13T09:49:23.510Z,13.44
2018-11-13T09:51:52.028Z,13.81
2018-11-13T09:54:20.414Z,14.07
2018-11-13T09:56:48.817Z,12.94
2018-11-13T09:59:17.824Z,13.64
2018-11-13T10:01:46.757Z,13.93
2018-11-13T10:04:15.810Z,13.96
2018-11-13T10:06:44.259Z,13.39
2018-11-13T10:09:14.104Z,13.49
2018-11-13T10:11:44.283Z,13.35
2018-11-13T10:14:13.871Z,13.74
2018-11-13T10:16:43.071Z,14.27
2018-11-13T10:19:12.563Z,13.91
2018-11-13T10:21:48.687Z,13.44
2018-11-13T10:24:18.054Z,13.84
2018-11-13T10:26:47.061Z,14.39
2018-11-13T10:29:16.338Z,14.52
2018-11-13T10:31:45.646Z,14.07
2018-11-13T10:34:14.690Z,13.27
2018-11-13T10:36:43.609Z,14.40
2018-11-13T10:39:12.945Z,13.79
2018-11-13T10:41:42.035Z,13.91
2018-11-13T10:44:10.882Z,14.31
2018-11-13T10:46:40.124Z,14.30
2018-11-13T10:49:09.378Z,14.76
2018-11-13T10:51:39.720Z,14.40
2018-11-13T10:54:08.894Z,14.54
2018-11-13T10:56:38.366Z,14.78
2018-11-13T10:59:07.485Z,14.79
2018-11-13T11:01:42.041Z,15.27
2018-11-13T11:04:16.051Z,13.95
2018-11-13T11:06:44.763Z,13.25
2018-11-13T11:09:13.453Z,14.22
2018-11-13T11:11:42.411Z,14.54
2018-11-13T11:14:11.393Z,13.72
2018-11-13T11:16:40.412Z,14.14
2018-11-13T11:19:09.604Z,13.62
2018-11-13T11:21:39.761Z,14.33
2018-11-13T11:24:08.723Z,13.93
2018-11-13T11:26:36.987Z,14.02
2018-11-13T11:29:13.063Z,13.62
2018-11-13T11:31:41.592Z,13.37
2018-11-13T11:34:09.933Z,13.78
2018-11-13T11:36:38.250Z,13.28
2018-11-13T11:39:08.508Z,13.57
2018-11-13T11:41:37.042Z,14.39
2018-11-13T11:44:06.327Z,13.98
2018-11-13T11:46:34.771Z,14.31
2018-11-13T11:49:04.049Z,14.86
2018-11-13T11:51:34.195Z,14.92
2018-11-13T11:54:04.308Z,15.34
2018-11-13T11:56:32.669Z,15.47
2018-11-13T11:59:01.042Z,14.67
2018-11-13T12:01:29.494Z,14.25
2018-11-13T12:03:57.759Z,14.66
2018-11-13T12:06:26.063Z,14.10
2018-11-13T12:08:55.315Z,14.13
2018-11-13T12:11:23.596Z,13.80
2018-11-13T12:13:51.891Z,14.85
2018-11-13T12:16:20.196Z,14.28
2018-11-13T12:18:48.502Z,14.65
2018-11-13T12:21:16.857Z,14.89
2018-11-13T12:23:45.221Z,15.03
2018-11-13T12:26:13.505Z,15.28
2018-11-13T12:28:41.784Z,15.62
2018-11-13T12:31:10.099Z,14.93
2018-11-13T12:33:38.380Z,15.22
2018-11-13T12:36:06.657Z,14.69
2018-11-13T12:38:34.936Z,15.63
2018-11-13T12:41:05.558Z,16.29
2018-11-13T12:46:18.091Z,15.35
2018-11-13T12:48:47.810Z,14.77
2018-11-13T12:51:22.989Z,15.20
2018-11-13T12:53:51.857Z,14.21
2018-11-13T12:56:20.467Z,14.21
2018-11-13T12:58:50.376Z,14.46
2018-11-13T13:01:18.911Z,14.12
2018-11-13T13:03:47.441Z,14.23
2018-11-13T13:06:16.238Z,14.43
2018-11-13T13:08:44.808Z,14.08
2018-11-13T13:11:13.416Z,13.98
2018-11-13T13:13:44.417Z,14.10
2018-11-13T13:16:14.556Z,14.30
2018-11-13T13:18:43.158Z,14.10
2018-11-13T13:21:11.597Z,13.90
2018-11-13T13:23:40.015Z,12.97
2018-11-13T13:26:08.955Z,13.33
2018-11-13T13:28:37.387Z,13.95
2018-11-13T13:31:06.069Z,14.08
2018-11-13T13:33:34.466Z,14.23
2018-11-13T13:36:04.563Z,14.88
2018-11-13T13:38:34.531Z,15.28
2018-11-13T13:41:03.649Z,14.77
2018-11-13T13:43:32.768Z,14.12
2018-11-13T13:46:01.281Z,14.16
2018-11-13T13:48:29.815Z,13.83
2018-11-13T13:50:58.579Z,13.49
2018-11-13T13:53:27.690Z,13.23
2018-11-13T13:55:56.058Z,13.44
2018-11-13T13:58:24.917Z,13.86
2018-11-13T14:00:53.639Z,14.31
2018-11-13T14:03:21.848Z,13.62
2018-11-13T14:05:50.161Z,13.84
2018-11-13T14:08:19.036Z,13.00
2018-11-13T14:10:47.429Z,13.19
2018-11-13T14:13:16.009Z,13.25
2018-11-13T14:15:44.424Z,13.64
2018-11-13T14:18:13.198Z,13.56
2018-11-13T14:20:41.570Z,13.63
2018-11-13T14:23:09.812Z,13.13
2018-11-13T14:25:38.213Z,13.40
2018-11-13T14:28:06.539Z,13.17
2018-11-13T14:30:36.085Z,13.88
2018-11-13T14:33:06.494Z,13.51
2018-11-13T14:35:35.021Z,13.36
2018-11-13T14:38:03.612Z,12.68
2018-11-13T14:40:36.401Z,12.58
2018-11-13T14:43:05.575Z,12.47
2018-11-13T14:45:34.028Z,12.69
2018-11-13T14:48:02.384Z,12.35
2018-11-13T14:50:32.125Z,12.66
2018-11-13T14:53:00.691Z,12.63
2018-11-13T14:55:31.581Z,12.84
2018-11-13T14:58:00.700Z,12.26
2018-11-13T15:00:30.041Z,12.72
2018-11-13T15:02:58.919Z,13.13
2018-11-13T15:05:27.828Z,12.67
2018-11-13T15:07:57.549Z,12.77
2018-11-13T15:10:31.974Z,12.86
2018-11-13T15:13:00.303Z,12.14
2018-11-13T15:15:28.588Z,12.45
2018-11-13T15:17:56.901Z,12.83
2018-11-13T15:20:25.224Z,13.06
2018-11-13T15:22:53.529Z,12.95
2018-11-13T15:25:21.839Z,12.66
2018-11-13T15:27:50.128Z,12.48
2018-11-13T15:30:26.756Z,12.53
2018-11-13T15:33:26.429Z,12.46
2018-11-13T15:35:54.794Z,12.59
2018-11-13T15:38:23.200Z,12.43
2018-11-13T15:40:51.688Z,12.41
2018-11-13T15:43:20.106Z,12.64
2018-11-13T15:45:48.516Z,12.76
2018-11-13T15:48:17.129Z,12.47
2018-11-13T15:50:45.588Z,12.32
2018-11-13T15:53:13.980Z,12.67
2018-11-13T15:55:42.464Z,12.68
2018-11-13T15:58:10.897Z,12.10
2018-11-13T16:00:40.624Z,12.76
2018-11-13T16:03:11.444Z,12.33
2018-11-13T16:05:42.174Z,11.81
2018-11-13T16:08:10.954Z,12.78
2018-11-13T16:10:39.277Z,12.53
2018-11-13T16:13:07.796Z,12.48
2018-11-13T16:15:37.133Z,12.76
2018-11-13T16:18:06.856Z,13.25
2018-11-13T16:20:35.160Z,12.12
2018-11-13T16:23:03.512Z,13.16
2018-11-13T16:25:31.859Z,12.36
2018-11-13T16:28:00.309Z,12.60
2018-11-13T16:30:30.420Z,12.64
2018-11-13T16:32:58.529Z,12.85
2018-11-13T16:35:27.772Z,13.09
2018-11-13T16:37:57.019Z,12.49
2018-11-13T16:40:26.606Z,12.91
2018-11-13T16:42:55.035Z,12.70
2018-11-13T16:45:25.014Z,12.45
2018-11-13T16:47:54.977Z,12.42
2018-11-13T16:50:26.595Z,12.58
2018-11-13T16:52:55.687Z,12.68
2018-11-13T16:55:29.658Z,12.82
2018-11-13T16:58:01.986Z,12.15
2018-11-13T17:00:32.015Z,12.62
2018-11-13T17:03:01.913Z,12.20
2018-11-13T17:05:32.751Z,12.74
2018-11-13T17:08:02.818Z,12.20
2018-11-13T17:10:33.707Z,11.86
2018-11-13T17:13:06.243Z,12.25
2018-11-13T17:15:34.944Z,12.65
2018-11-13T17:18:03.890Z,12.62
2018-11-13T17:20:32.372Z,12.83
2018-11-13T17:23:01.246Z,12.71
2018-11-13T17:25:33.438Z,12.09
2018-11-13T17:28:04.190Z,12.23
2018-11-13T17:30:35.724Z,12.24
2018-11-13T17:33:06.852Z,12.72
2018-11-13T17:35:37.007Z,12.50
2018-11-13T17:38:07.885Z,12.88
2018-11-13T17:40:38.203Z,11.91
2018-11-13T17:43:08.433Z,12.06
2018-11-13T17:45:40.307Z,12.59
2018-11-13T17:48:11.136Z,12.69
2018-11-13T17:50:41.768Z,12.15
2018-11-13T17:53:11.851Z,11.96
2018-11-13T17:55:41.663Z,12.43
2018-11-13T17:58:13.648Z,12.04
2018-11-13T18:00:46.003Z,12.17
2018-11-13T18:03:16.476Z,12.61
2018-11-13T18:05:48.986Z,12.06
2018-11-13T18:08:22.048Z,12.09
2018-11-13T18:10:51.471Z,12.02
2018-11-13T18:13:21.167Z,12.08
2018-11-13T18:15:50.718Z,12.25
2018-11-13T18:18:20.429Z,12.31
2018-11-13T18:20:50.434Z,12.49
2018-11-13T18:23:20.263Z,13.17
2018-11-13T18:25:51.362Z,12.41
2018-11-13T18:28:21.561Z,12.00
2018-11-13T18:30:51.289Z,12.32
2018-11-13T18:33:22.403Z,12.07
2018-11-13T18:35:53.521Z,12.06
2018-11-13T18:38:25.171Z,12.26
2018-11-13T18:40:55.348Z,12.61
2018-11-13T18:43:26.101Z,12.71
2018-11-13T18:45:56.232Z,11.83
2018-11-13T18:48:26.643Z,12.70
2018-11-13T18:50:56.234Z,11.25
2018-11-13T18:53:25.679Z,11.49
2018-11-13T18:55:55.245Z,11.53
2018-11-13T18:58:25.557Z,11.84
2018-11-13T19:00:56.006Z,11.93
2018-11-13T19:03:25.940Z,11.49
2018-11-13T19:05:55.556Z,11.74
2018-11-13T19:08:32.297Z,11.51
2018-11-13T19:11:03.853Z,11.71
2018-11-13T19:13:33.723Z,11.49
2018-11-13T19:16:05.738Z,11.74
2018-11-13T19:18:35.448Z,10.99
2018-11-13T19:21:04.154Z,11.36
2018-11-13T19:23:32.457Z,11.03
2018-11-13T19:26:00.892Z,11.35
2018-11-13T19:28:29.268Z,11.11
2018-11-13T19:30:57.746Z,11.17
2018-11-13T19:33:26.139Z,11.26
2018-11-13T19:35:54.546Z,11.18
2018-11-13T19:38:22.908Z,11.09
2018-11-13T19:40:51.299Z,11.57
2018-11-13T19:43:19.617Z,10.98
2018-11-13T19:45:48.049Z,11.38
2018-11-13T19:48:16.425Z,11.23
2018-11-13T19:50:44.806Z,11.61
2018-11-13T19:53:13.181Z,11.26
2018-11-13T19:55:41.551Z,11.47
2018-11-13T19:58:09.966Z,11.47
2018-11-13T20:00:42.232Z,11.22
2018-11-13T20:03:11.397Z,11.41
2018-11-13T20:05:41.031Z,11.51
2018-11-13T20:08:10.652Z,11.73
2018-11-13T20:10:40.168Z,11.62
2018-11-13T20:13:09.285Z,11.63
2018-11-13T20:15:38.082Z,11.59
2018-11-13T20:18:06.505Z,11.79
2018-11-13T20:20:35.807Z,11.56
2018-11-13T20:23:05.299Z,11.82
2018-11-13T20:25:34.574Z,11.76
2018-11-13T20:28:08.755Z,12.16
2018-11-13T20:30:39.433Z,12.31
2018-11-13T20:33:07.858Z,11.69
2018-11-13T20:35:36.247Z,12.22
2018-11-13T20:38:07.656Z,12.04
2018-11-13T20:40:36.760Z,12.70
2018-11-13T20:43:06.505Z,11.59
2018-11-13T20:45:34.789Z,11.74
2018-11-13T20:48:03.080Z,11.64
2018-11-13T20:50:32.461Z,12.62
2018-11-13T20:53:00.775Z,11.91
2018-11-13T20:55:29.195Z,12.18
2018-11-13T20:57:57.623Z,12.24
2018-11-13T21:00:29.043Z,11.78
2018-11-13T21:02:57.611Z,11.77
2018-11-13T21:05:26.092Z,11.33
2018-11-13T21:07:54.607Z,11.24
2018-11-13T21:10:23.329Z,11.88
2018-11-13T21:12:52.491Z,12.00
2018-11-13T21:18:13.312Z,11.63
2018-11-13T21:20:41.888Z,11.25
2018-11-13T21:23:10.287Z,11.69
2018-11-13T21:25:38.680Z,11.68
2018-11-13T21:28:07.084Z,11.46
2018-11-13T21:30:35.662Z,11.68
2018-11-13T21:33:04.091Z,11.78
2018-11-13T21:35:32.645Z,12.15
2018-11-13T21:38:01.111Z,12.60
2018-11-13T21:40:29.603Z,12.26
2018-11-13T21:42:58.311Z,12.14
2018-11-13T21:45:28.224Z,11.83
2018-11-13T21:47:56.580Z,12.59
2018-11-13T21:50:26.622Z,11.61
2018-11-13T21:52:54.854Z,12.05
2018-11-13T21:55:24.323Z,11.60
2018-11-13T21:57:52.823Z,12.10
2018-11-13T22:00:24.000Z,11.73
2018-11-13T22:02:56.761Z,11.42
2018-11-13T22:05:26.120Z,11.80
2018-11-13T22:07:54.489Z,12.08
2018-11-13T22:10:22.992Z,11.50
2018-11-13T22:12:51.381Z,11.62
2018-11-13T22:15:21.162Z,11.76
2018-11-13T22:17:49.630Z,11.37
2018-11-13T22:20:18.662Z,11.79
2018-11-13T22:22:48.227Z,11.81
2018-11-13T22:25:19.033Z,11.73
2018-11-13T22:27:48.513Z,12.10
2018-11-13T22:30:18.135Z,11.35
2018-11-13T22:32:47.899Z,11.93
2018-11-13T22:35:16.777Z,11.70
2018-11-13T22:37:45.256Z,11.13
2018-11-13T22:40:17.462Z,11.56
2018-11-13T22:42:46.259Z,11.31
2018-11-13T22:45:17.213Z,11.78
2018-11-13T22:47:45.591Z,12.37
2018-11-13T22:50:17.227Z,11.72
2018-11-13T22:52:45.999Z,11.46
2018-11-13T22:55:15.031Z,11.51
2018-11-13T22:57:44.207Z,11.72
2018-11-13T23:00:18.171Z,11.93
2018-11-13T23:02:46.996Z,12.28
2018-11-13T23:05:15.382Z,12.46
2018-11-13T23:07:43.795Z,12.58
2018-11-13T23:10:13.300Z,12.28
2018-11-13T23:12:43.551Z,11.99
2018-11-13T23:15:15.312Z,12.11
2018-11-13T23:17:44.796Z,12.18
2018-11-13T23:20:16.718Z,11.70
2018-11-13T23:22:46.305Z,12.11
2018-11-13T23:25:17.312Z,12.11
2018-11-13T23:27:47.240Z,11.58
2018-11-13T23:30:18.691Z,12.01
2018-11-13T23:32:48.322Z,12.03
2018-11-13T23:35:17.214Z,11.77
2018-11-13T23:37:46.802Z,12.21
2018-11-13T23:40:16.331Z,12.11
2018-11-13T23:42:46.198Z,12.30
2018-11-13T23:45:16.589Z,12.80
2018-11-13T23:47:45.303Z,12.71
2018-11-13T23:50:13.868Z,12.12
2018-11-13T23:52:42.483Z,11.96
2018-11-13T23:55:11.896Z,12.43
2018-11-13T23:57:40.840Z,12.50
